Flugplatz Nordhorn-Lingen

EDWN · 下萨克森, 德国

罗盘
风向 的 风向 190° Flugplatz Nordhorn-Lingen 5/23
风: 4 kt, 2 beaufort

3 kt

3 kt
改变
0 1.000 2.000 3.000 4.000 5.000
N/A
SPECI ETWM 261720Z AUTO 19004KT //// // ////// 08/07 Q1027 ///

METAR Flugplatz Nordhorn-Lingen - EDWN

Flugplatz Nordhorn-Lingen是,德国中的小机场。 该机场有一条跑道: 5/23. 该领域的国际民航组织标志是EDWN.

这份报告是针对2022年11月26日 18:20, 当地时间在Meppen Air Base进行的。

机场观察

风向为190°,速度为4 kt。

温度为8 °C,阵风为5 °C。 露点为7 °C,相对湿度为93%。 海平面上的气压为1027 hPa (QNH)。

白天

今天,太阳从08:11升起,在16:25降落。 这适用于Flugplatz Nordhorn-Lingen,世界夏令时可能有所不同。 当地时间与世界标准时间之间的时差为+1 小时。 当前,没有夏令时有效。

公司介绍

我们没有关于这个机场的公司信息。

体会

到Vliegles.nl去找飞行课程,跳伞和其他飞行体验。 浏览页面,了解Flugplatz Nordhorn-Lingen附近所有可用的活动。 你也可以使用搜索功能来寻找你所在地附近的特定飞行课程、跳伞或其他飞行体验。

跑道

Id 标题 侧风 逆风 侧风 %
5/23 053°-233° 3 kt 3 kt 68 %

逆风成分最大的方向会被突出显示,并用于横风计算。 这并不一定意味着这个方向在使用。

乌云

0 ft

温度 & 天气

温度 8 °C
露点 7 °C
相对湿度 93%
风寒 5 °C
Kp-index 0 (0-9)

白天

日出
08:12 (12:59)
中午
12:17
日落
16:23

小工具

你想在你的网站上有一个关于Flugplatz Nordhorn-Lingen的当前航空天气(METAR)的小部件吗?

显示HTML代码

我们和第三方通过cookies跟踪您在我们网站上的互联网行为。如果你继续,我们认为你同意我们的饼干政策